EHWO/WOE METAR and TAF weather

Enter ICAO airport designator
Station Type Date Time Source
EHWO METAR 2019/08/19 22:55 UTC NOAA

EHWO 192255Z AUTO 22006KT 190V250 9999 NCD 15/10 Q1019 BLU


Station Type Date Time Source
EHWO Decoded METAR 2019/08/19 22:55 UTC NOAA

Woensdrecht, Netherlands (EHWO) 51-27N 004-20E 17M
Aug 19, 2019 - 06:55 PM EDT / 2019.08.19 2255 UTC
Wind: from the SW (220 degrees) at 7 MPH (6 KT) (direction variable):0
Visibility: greater than 7 mile(s):0
Temperature: 59 F (15 C)
Dew Point: 50 F (10 C)
Relative Humidity: 72%
Pressure (altimeter): 30.09 in. Hg (1019 hPa)
ob: EHWO 192255Z AUTO 22006KT 190V250 9999 NCD 15/10 Q1019 BLU
cycle: 23

Station Type Date Time Source
EHWO TAF 2019/08/19 09:06 UTC NOAA

TAF EHWO 190844Z 1909/1921 23013KT 9999 SCT020
TEMPO 1909/1917 24015G25KT FEW020CB SCT030

Example: see airport list